»·PEaware :: UAL1157 KPDX-KSFO

UAL1157 :: KPDX-KSFO

FLIGHT INFORMATION

Flight Status: Arrived
Operator:
United Airlines
More flights by this operator :: More flights under this callsign
Pilot: Utku A. (15598)
Aircraft: BOEING 737-800
(B738)
More flights by this aircraft type
Origin: KPDX Portland Intl
United States
Destination: KSFO San Francisco Intl
United States
More flights between these airports :: More routes between these airports
Route: +MINNE5 FAMUK Q3 FOWND MLBEC BDEGA2
File this flight plan on PilotEdge
Remarks:
Altitude:
(Current/Filed)
37,000ft
Speed:
(Current/Filed)
460kts
Departed: 04-Aug-18 05:52 PM
Arrived: 04-Aug-18 07:16 PM
Distance/Time
Traveled:
478nm/1:23
Distance/Time
To Go:
Arrived

Flight Plot

Page will automatically refresh every two minutes.


Map Options




Map Legend


Flown Route
Filed Route
Departure Airport
Arrival Airport
Navaid (VOR, NDB)
Fix

Horizontal Profiles

Position Reports

Time Latitude Longitude Heading Altitude Ground
Speed
04-Aug-18 17:16 45.590100 -122.591013 207 37ft 0kts
04-Aug-18 17:17 45.590100 -122.591013 207 37ft 0kts
04-Aug-18 17:18 45.590100 -122.591013 207 37ft 0kts
04-Aug-18 17:19 45.590100 -122.591013 207 37ft 0kts
04-Aug-18 17:20 45.590100 -122.591013 207 37ft 0kts
04-Aug-18 17:21 45.590100 -122.591013 207 37ft 0kts
04-Aug-18 17:22 45.590100 -122.591013 207 37ft 0kts
04-Aug-18 17:23 45.590100 -122.591013 207 37ft 0kts
04-Aug-18 17:24 45.590100 -122.591013 207 37ft 0kts
04-Aug-18 17:25 45.590100 -122.591013 207 37ft 0kts
04-Aug-18 17:26 45.590100 -122.591013 207 37ft 0kts
04-Aug-18 17:27 45.590100 -122.591013 207 37ft 0kts
04-Aug-18 17:28 45.590100 -122.591013 207 37ft 0kts
04-Aug-18 17:29 45.590100 -122.591013 207 37ft 0kts
04-Aug-18 17:30 45.590100 -122.591013 207 37ft 0kts
04-Aug-18 17:31 45.590100 -122.591013 207 37ft 0kts
04-Aug-18 17:32 45.590100 -122.591013 207 37ft 0kts
04-Aug-18 17:33 45.590100 -122.591013 207 37ft 0kts
04-Aug-18 17:34 45.590100 -122.591013 207 37ft 0kts
04-Aug-18 17:35 45.590100 -122.591013 207 37ft 0kts
04-Aug-18 17:36 45.590100 -122.591013 207 37ft 0kts
04-Aug-18 17:37 45.590100 -122.591013 207 37ft 0kts
04-Aug-18 17:38 45.590100 -122.591013 207 37ft 0kts
04-Aug-18 17:39 45.590100 -122.591013 207 37ft 0kts
04-Aug-18 17:40 45.590100 -122.591013 207 37ft 0kts
04-Aug-18 17:41 45.590100 -122.591013 207 37ft 0kts
04-Aug-18 17:42 45.590100 -122.591012 207 37ft 0kts
04-Aug-18 17:43 45.590201 -122.590935 207 37ft 2kts
04-Aug-18 17:44 45.590714 -122.590835 156 37ft 2kts
04-Aug-18 17:45 45.590992 -122.591208 118 37ft 0kts
04-Aug-18 17:46 45.590992 -122.591208 118 37ft 0kts
04-Aug-18 17:47 45.590988 -122.591199 118 37ft 0kts
04-Aug-18 17:48 45.589994 -122.588816 123 37ft 14kts
04-Aug-18 17:49 45.589104 -122.584232 119 37ft 14kts
04-Aug-18 17:50 45.586969 -122.578760 118 37ft 16kts
04-Aug-18 17:51 45.584762 -122.573088 118 37ft 16kts
04-Aug-18 17:52 45.582838 -122.568141 117 37ft 11kts
04-Aug-18 17:53 45.584424 -122.568989 298 37ft 49kts
04-Aug-18 17:54 45.603311 -122.616963 297 1535ft 166kts
04-Aug-18 17:55 45.623302 -122.682570 297 3306ft 213kts
04-Aug-18 17:56 45.658142 -122.770574 300 5610ft 272kts
04-Aug-18 17:57 45.661227 -122.876190 241 8576ft 292kts
04-Aug-18 17:58 45.589093 -122.927667 185 10932ft 325kts
04-Aug-18 17:59 45.497106 -122.938037 184 13558ft 342kts
04-Aug-18 18:00 45.400400 -122.948968 185 16124ft 358kts
04-Aug-18 18:01 45.299087 -122.960551 185 18482ft 374kts
04-Aug-18 18:02 45.193830 -122.975059 191 20633ft 389kts
04-Aug-18 18:03 45.086224 -123.000090 192 22626ft 401kts
04-Aug-18 18:04 44.974804 -123.026043 193 24482ft 411kts
04-Aug-18 18:05 44.862460 -123.052162 193 25950ft 425kts
04-Aug-18 18:06 44.745143 -123.079324 193 27260ft 440kts
04-Aug-18 18:07 44.622840 -123.107499 193 28504ft 453kts
04-Aug-18 18:08 44.497715 -123.135440 187 29678ft 465kts
04-Aug-18 18:09 44.367868 -123.132541 180 31051ft 471kts
04-Aug-18 18:10 44.237846 -123.127539 180 32322ft 473kts
04-Aug-18 18:11 44.106674 -123.122686 179 33550ft 473kts
04-Aug-18 18:12 43.975850 -123.117933 179 34243ft 472kts
04-Aug-18 18:13 43.847764 -123.113321 178 34489ft 469kts
04-Aug-18 18:14 43.719043 -123.108707 179 34941ft 461kts
04-Aug-18 18:15 43.591858 -123.104154 179 35413ft 456kts
04-Aug-18 18:16 43.463722 -123.099571 179 35933ft 470kts
04-Aug-18 18:17 43.331818 -123.094971 179 36449ft 482kts
04-Aug-18 18:18 43.196639 -123.090198 178 36969ft 493kts
04-Aug-18 18:19 43.057223 -123.085356 178 36974ft 512kts
04-Aug-18 18:20 42.916423 -123.080368 180 37055ft 500kts
04-Aug-18 18:21 42.782797 -123.075683 181 37079ft 494kts
04-Aug-18 18:22 42.646099 -123.070999 181 37069ft 491kts
04-Aug-18 18:23 42.510026 -123.066320 181 37050ft 492kts
04-Aug-18 18:24 42.373040 -123.061804 181 36967ft 493kts
04-Aug-18 18:25 42.236671 -123.057475 181 36963ft 493kts
04-Aug-18 18:26 42.100181 -123.053125 181 36971ft 492kts
04-Aug-18 18:27 41.963450 -123.048760 181 36976ft 491kts
04-Aug-18 18:28 41.831225 -123.044568 182 36979ft 491kts
04-Aug-18 18:29 41.695304 -123.040229 182 36992ft 490kts
04-Aug-18 18:30 41.559403 -123.035927 181 36993ft 488kts
04-Aug-18 18:31 41.446614 -123.032343 182 36993ft 488kts
04-Aug-18 18:32 41.289348 -123.027428 182 36994ft 488kts
04-Aug-18 18:33 41.154536 -123.023386 182 36995ft 486kts
04-Aug-18 18:34 41.042342 -123.019912 185 36994ft 477kts
04-Aug-18 18:35 40.917107 -123.015797 187 36980ft 425kts
04-Aug-18 18:36 40.780870 -123.012117 187 36993ft 439kts
04-Aug-18 18:37 40.680028 -123.009209 187 36997ft 437kts
04-Aug-18 18:38 40.558681 -123.005709 187 36990ft 437kts
04-Aug-18 18:39 40.437467 -123.002205 187 36996ft 437kts
04-Aug-18 18:40 40.316878 -122.998672 188 36992ft 436kts
04-Aug-18 18:41 40.195955 -122.995125 188 36991ft 435kts
04-Aug-18 18:42 40.075470 -122.991630 188 36962ft 435kts
04-Aug-18 18:43 39.954997 -122.988122 188 36913ft 434kts
04-Aug-18 18:44 39.838866 -122.984699 188 36907ft 432kts
04-Aug-18 18:45 39.719105 -122.981234 188 36519ft 434kts
04-Aug-18 18:46 39.599939 -122.977694 188 35532ft 429kts
04-Aug-18 18:47 39.480584 -122.974237 188 34529ft 432kts
04-Aug-18 18:48 39.361080 -122.970751 188 33438ft 432kts
04-Aug-18 18:49 39.240925 -122.967281 187 32343ft 435kts
04-Aug-18 18:50 39.120019 -122.963778 187 31239ft 438kts
04-Aug-18 18:51 38.998522 -122.961078 187 30131ft 441kts
04-Aug-18 18:52 38.895939 -122.959126 187 29205ft 447kts
04-Aug-18 18:53 38.776670 -122.931069 176 28026ft 424kts
04-Aug-18 18:54 38.662800 -122.897006 175 26547ft 420kts
04-Aug-18 18:55 38.550706 -122.863717 175 25056ft 410kts
04-Aug-18 18:56 38.441592 -122.831465 175 23508ft 402kts
04-Aug-18 18:57 38.334186 -122.799833 174 21914ft 392kts
04-Aug-18 18:58 38.229488 -122.769122 174 20324ft 383kts
04-Aug-18 18:59 38.126997 -122.739226 174 18414ft 374kts
04-Aug-18 19:00 38.027956 -122.710399 173 16220ft 360kts
04-Aug-18 19:01 37.932421 -122.682703 172 14041ft 350kts
04-Aug-18 19:02 37.850555 -122.623028 144 12649ft 346kts
04-Aug-18 19:03 37.781012 -122.548788 144 11556ft 319kts
04-Aug-18 19:04 37.714957 -122.478601 144 11010ft 310kts
04-Aug-18 19:05 37.648897 -122.408265 144 10834ft 314kts
04-Aug-18 19:06 37.581773 -122.346945 157 9622ft 304kts
04-Aug-18 19:07 37.508443 -122.300066 157 7901ft 291kts
04-Aug-18 19:08 37.438176 -122.254058 153 6197ft 283kts
04-Aug-18 19:09 37.384810 -122.188854 91 4567ft 275kts
04-Aug-18 19:10 37.411663 -122.112559 25 3999ft 227kts
04-Aug-18 19:11 37.466499 -122.116749 323 3409ft 213kts
04-Aug-18 19:12 37.514974 -122.159469 322 3077ft 208kts
04-Aug-18 19:13 37.547964 -122.207783 297 2659ft 178kts
04-Aug-18 19:14 37.570159 -122.259616 296 1758ft 164kts
04-Aug-18 19:15 37.589981 -122.306590 295 918ft 134kts
04-Aug-18 19:16 37.606905 -122.346908 294 262ft 135kts
04-Aug-18 19:17 37.618767 -122.375363 288 21ft 20kts
04-Aug-18 19:18 37.618924 -122.379209 268 29ft 14kts
04-Aug-18 19:19 37.619055 -122.382980 270 31ft 5kts
04-Aug-18 19:20 37.619206 -122.383571 291 31ft 0kts
04-Aug-18 19:21 37.619206 -122.383571 291 31ft 0kts
04-Aug-18 19:22 37.619206 -122.383571 291 31ft 0kts
04-Aug-18 19:23 37.619206 -122.383571 291 31ft 0kts
04-Aug-18 19:24 37.619206 -122.383571 291 31ft 0kts
04-Aug-18 19:25 37.619206 -122.383571 291 31ft 0kts
04-Aug-18 19:26 37.619206 -122.383571 291 31ft 0kts
04-Aug-18 19:27 37.619206 -122.383571 291 31ft 0kts
04-Aug-18 19:28 37.619206 -122.383571 291 31ft 0kts
04-Aug-18 19:29 37.619206 -122.383571 291 31ft 0kts
04-Aug-18 19:30 37.619206 -122.383571 291 31ft 0kts
04-Aug-18 19:31 37.619206 -122.383571 291 31ft 0kts

Navigation Log

Ident Type
1. KPDX Airport
2. RIVRR Fix
3. COSUG Fix
4. BISLE Fix
5. MINNE Fix
6. FAMUK Fix
7. FAMUK Navaid
8. FRFLY Navaid
9. FINER Navaid
10. FOWND Navaid
11. MLBEC Fix
12. JONNE Fix
13. BGGLO Fix
14. LOZIT Fix
15. BDEGA Fix
16. CORKK Fix
17. BRIXX Fix
18. KSFO Airport